sensor_id;sensor_type;location;lat;lon;timestamp;pressure;altitude;pressure_sealevel;temperature;humidity
59168;BME280;70412;55.048;73.268;2024-01-07T00:02:57;100997.19;;;-23.29;100.00
59168;BME280;70412;55.048;73.268;2024-01-07T00:05:59;100994.72;;;-23.29;100.00
59168;BME280;70412;55.048;73.268;2024-01-07T00:09:02;100990.97;;;-23.24;100.00
59168;BME280;70412;55.048;73.268;2024-01-07T00:12:05;100982.97;;;-23.20;100.00
59168;BME280;70412;55.048;73.268;2024-01-07T00:15:07;100994.69;;;-23.07;100.00
59168;BME280;70412;55.048;73.268;2024-01-07T00:18:10;100994.81;;;-23.06;100.00
59168;BME280;70412;55.048;73.268;2024-01-07T00:21:12;101000.94;;;-23.01;100.00
59168;BME280;70412;55.048;73.268;2024-01-07T00:24:15;100988.00;;;-22.97;100.00
59168;BME280;70412;55.048;73.268;2024-01-07T00:27:17;100977.75;;;-22.89;100.00
59168;BME280;70412;55.048;73.268;2024-01-07T00:30:20;100974.28;;;-22.91;100.00
59168;BME280;70412;55.048;73.268;2024-01-07T00:33:23;100977.22;;;-22.97;100.00
59168;BME280;70412;55.048;73.268;2024-01-07T00:36:25;100968.13;;;-22.97;100.00
59168;BME280;70412;55.048;73.268;2024-01-07T00:39:27;100972.25;;;-22.97;100.00
59168;BME280;70412;55.048;73.268;2024-01-07T00:42:29;100942.00;;;-23.15;100.00
59168;BME280;70412;55.048;73.268;2024-01-07T00:45:32;100973.09;;;-22.97;100.00
59168;BME280;70412;55.048;73.268;2024-01-07T00:48:34;100967.66;;;-23.03;100.00
59168;BME280;70412;55.048;73.268;2024-01-07T00:51:36;100974.25;;;-23.03;100.00
59168;BME280;70412;55.048;73.268;2024-01-07T00:54:38;100969.97;;;-23.06;100.00
59168;BME280;70412;55.048;73.268;2024-01-07T00:57:41;100994.03;;;-23.05;100.00
59168;BME280;70412;55.048;73.268;2024-01-07T01:00:43;100986.38;;;-23.08;100.00
59168;BME280;70412;55.048;73.268;2024-01-07T01:03:45;100986.25;;;-23.09;100.00
59168;BME280;70412;55.048;73.268;2024-01-07T01:06:47;100978.81;;;-23.09;100.00
59168;BME280;70412;55.048;73.268;2024-01-07T01:09:50;100987.88;;;-23.10;100.00
59168;BME280;70412;55.048;73.268;2024-01-07T01:12:52;100990.59;;;-23.07;100.00
59168;BME280;70412;55.048;73.268;2024-01-07T01:15:55;100987.25;;;-23.07;100.00
59168;BME280;70412;55.048;73.268;2024-01-07T01:18:58;100975.03;;;-23.16;100.00
59168;BME280;70412;55.048;73.268;2024-01-07T01:22:00;100983.25;;;-23.05;100.00
59168;BME280;70412;55.048;73.268;2024-01-07T01:25:03;100985.81;;;-23.04;100.00
59168;BME280;70412;55.048;73.268;2024-01-07T01:28:06;100980.00;;;-23.04;100.00
59168;BME280;70412;55.048;73.268;2024-01-07T01:31:08;100974.38;;;-23.02;100.00
59168;BME280;70412;55.048;73.268;2024-01-07T01:34:14;100981.06;;;-23.01;100.00
59168;BME280;70412;55.048;73.268;2024-01-07T01:37:16;100976.34;;;-22.98;100.00
59168;BME280;70412;55.048;73.268;2024-01-07T01:40:19;100973.50;;;-23.02;100.00
59168;BME280;70412;55.048;73.268;2024-01-07T01:43:28;100972.13;;;-22.99;100.00
59168;BME280;70412;55.048;73.268;2024-01-07T01:46:31;100983.03;;;-22.97;100.00
59168;BME280;70412;55.048;73.268;2024-01-07T01:49:34;100981.53;;;-22.95;100.00
59168;BME280;70412;55.048;73.268;2024-01-07T01:52:38;100977.59;;;-23.03;100.00
59168;BME280;70412;55.048;73.268;2024-01-07T01:55:43;100993.19;;;-22.94;100.00
59168;BME280;70412;55.048;73.268;2024-01-07T01:58:45;100901.75;;;-23.44;100.00
59168;BME280;70412;55.048;73.268;2024-01-07T02:01:48;100983.47;;;-22.90;100.00
59168;BME280;70412;55.048;73.268;2024-01-07T02:04:51;100978.31;;;-22.82;100.00
59168;BME280;70412;55.048;73.268;2024-01-07T02:07:54;100983.50;;;-22.79;100.00
59168;BME280;70412;55.048;73.268;2024-01-07T02:10:58;100982.66;;;-22.79;100.00
59168;BME280;70412;55.048;73.268;2024-01-07T02:14:02;100969.44;;;-22.90;100.00
59168;BME280;70412;55.048;73.268;2024-01-07T02:17:05;100975.47;;;-22.98;100.00
59168;BME280;70412;55.048;73.268;2024-01-07T02:20:08;100991.75;;;-23.02;100.00
59168;BME280;70412;55.048;73.268;2024-01-07T02:23:11;100943.59;;;-23.15;100.00
59168;BME280;70412;55.048;73.268;2024-01-07T02:26:13;100986.94;;;-22.88;100.00
59168;BME280;70412;55.048;73.268;2024-01-07T02:29:16;100988.56;;;-22.89;100.00
59168;BME280;70412;55.048;73.268;2024-01-07T02:32:18;100979.38;;;-22.90;100.00
59168;BME280;70412;55.048;73.268;2024-01-07T02:35:21;100980.13;;;-22.91;100.00
59168;BME280;70412;55.048;73.268;2024-01-07T02:38:23;100978.28;;;-22.94;100.00
59168;BME280;70412;55.048;73.268;2024-01-07T02:41:26;100988.00;;;-22.97;100.00
59168;BME280;70412;55.048;73.268;2024-01-07T02:44:28;101001.78;;;-23.00;100.00
59168;BME280;70412;55.048;73.268;2024-01-07T02:47:31;100981.41;;;-23.08;100.00
59168;BME280;70412;55.048;73.268;2024-01-07T02:50:33;100984.19;;;-23.03;100.00
59168;BME280;70412;55.048;73.268;2024-01-07T02:53:36;100945.72;;;-23.20;100.00
59168;BME280;70412;55.048;73.268;2024-01-07T02:56:38;100976.44;;;-22.96;100.00
59168;BME280;70412;55.048;73.268;2024-01-07T02:59:41;100977.22;;;-22.97;100.00
59168;BME280;70412;55.048;73.268;2024-01-07T03:02:43;100933.53;;;-23.17;100.00
59168;BME280;70412;55.048;73.268;2024-01-07T03:05:45;100952.47;;;-22.96;100.00
59168;BME280;70412;55.048;73.268;2024-01-07T03:08:48;100954.00;;;-22.86;100.00
59168;BME280;70412;55.048;73.268;2024-01-07T03:11:53;100952.16;;;-22.88;100.00
59168;BME280;70412;55.048;73.268;2024-01-07T03:14:56;100942.25;;;-22.77;100.00
59168;BME280;70412;55.048;73.268;2024-01-07T03:17:58;100913.06;;;-22.79;100.00
59168;BME280;70412;55.048;73.268;2024-01-07T03:21:01;100928.84;;;-22.55;100.00
59168;BME280;70412;55.048;73.268;2024-01-07T03:24:04;100940.84;;;-22.50;100.00
59168;BME280;70412;55.048;73.268;2024-01-07T03:27:06;100952.00;;;-22.45;100.00
59168;BME280;70412;55.048;73.268;2024-01-07T03:30:09;100963.47;;;-22.47;100.00
59168;BME280;70412;55.048;73.268;2024-01-07T03:33:12;100934.81;;;-22.65;100.00
59168;BME280;70412;55.048;73.268;2024-01-07T03:36:14;100952.22;;;-22.42;100.00
59168;BME280;70412;55.048;73.268;2024-01-07T03:39:16;100964.97;;;-22.37;100.00
59168;BME280;70412;55.048;73.268;2024-01-07T03:42:19;100940.97;;;-22.37;100.00
59168;BME280;70412;55.048;73.268;2024-01-07T03:45:22;100948.63;;;-22.34;100.00
59168;BME280;70412;55.048;73.268;2024-01-07T03:48:24;100953.09;;;-22.29;100.00
59168;BME280;70412;55.048;73.268;2024-01-07T03:51:27;100964.97;;;-22.25;100.00
59168;BME280;70412;55.048;73.268;2024-01-07T03:54:30;100956.94;;;-22.21;100.00
59168;BME280;70412;55.048;73.268;2024-01-07T03:57:32;100959.09;;;-22.14;100.00
59168;BME280;70412;55.048;73.268;2024-01-07T04:00:38;100956.81;;;-22.11;100.00
59168;BME280;70412;55.048;73.268;2024-01-07T04:03:40;100948.25;;;-22.03;100.00
59168;BME280;70412;55.048;73.268;2024-01-07T04:06:43;100947.19;;;-21.95;100.00
59168;BME280;70412;55.048;73.268;2024-01-07T04:09:45;100933.06;;;-21.83;100.00
59168;BME280;70412;55.048;73.268;2024-01-07T04:12:47;100923.94;;;-21.71;100.00
59168;BME280;70412;55.048;73.268;2024-01-07T04:15:50;100918.28;;;-21.56;100.00
59168;BME280;70412;55.048;73.268;2024-01-07T04:18:52;100901.03;;;-21.53;100.00
59168;BME280;70412;55.048;73.268;2024-01-07T04:21:55;100906.44;;;-21.34;100.00
59168;BME280;70412;55.048;73.268;2024-01-07T04:24:57;100889.34;;;-21.29;100.00
59168;BME280;70412;55.048;73.268;2024-01-07T04:28:00;100868.53;;;-21.30;100.00
59168;BME280;70412;55.048;73.268;2024-01-07T04:31:04;100883.72;;;-21.00;100.00
59168;BME280;70412;55.048;73.268;2024-01-07T04:34:07;100885.09;;;-20.92;100.00
59168;BME280;70412;55.048;73.268;2024-01-07T04:37:09;100859.78;;;-20.85;100.00
59168;BME280;70412;55.048;73.268;2024-01-07T04:40:12;100868.03;;;-20.73;100.00
59168;BME280;70412;55.048;73.268;2024-01-07T04:43:14;100870.28;;;-20.64;100.00
59168;BME280;70412;55.048;73.268;2024-01-07T04:46:16;100855.16;;;-20.53;100.00
59168;BME280;70412;55.048;73.268;2024-01-07T04:49:20;100855.06;;;-20.41;100.00
59168;BME280;70412;55.048;73.268;2024-01-07T04:52:23;100853.22;;;-20.30;100.00
59168;BME280;70412;55.048;73.268;2024-01-07T04:55:26;100855.69;;;-20.17;100.00
59168;BME280;70412;55.048;73.268;2024-01-07T04:58:29;100859.19;;;-20.00;100.00
59168;BME280;70412;55.048;73.268;2024-01-07T05:01:34;100867.34;;;-19.90;100.00
59168;BME280;70412;55.048;73.268;2024-01-07T05:04:37;100870.75;;;-19.74;100.00
59168;BME280;70412;55.048;73.268;2024-01-07T05:07:52;100861.91;;;-19.54;100.00
59168;BME280;70412;55.048;73.268;2024-01-07T05:10:55;100869.94;;;-19.45;99.77
59168;BME280;70412;55.048;73.268;2024-01-07T05:13:58;100874.00;;;-19.33;98.85
59168;BME280;70412;55.048;73.268;2024-01-07T05:17:09;100871.69;;;-19.30;98.20
59168;BME280;70412;55.048;73.268;2024-01-07T05:20:12;100827.28;;;-19.34;98.38
59168;BME280;70412;55.048;73.268;2024-01-07T05:23:17;100856.44;;;-19.05;97.34
59168;BME280;70412;55.048;73.268;2024-01-07T05:26:20;100853.69;;;-18.94;97.61
59168;BME280;70412;55.048;73.268;2024-01-07T05:29:22;100850.84;;;-18.86;96.92
59168;BME280;70412;55.048;73.268;2024-01-07T05:32:24;100838.06;;;-18.76;96.46
59168;BME280;70412;55.048;73.268;2024-01-07T05:35:29;100809.44;;;-18.81;96.16
59168;BME280;70412;55.048;73.268;2024-01-07T05:38:32;100829.91;;;-18.57;95.11
59168;BME280;70412;55.048;73.268;2024-01-07T05:41:37;100823.91;;;-18.44;94.92
59168;BME280;70412;55.048;73.268;2024-01-07T05:44:40;100820.63;;;-18.43;93.43
59168;BME280;70412;55.048;73.268;2024-01-07T05:47:43;100816.41;;;-18.44;93.09
59168;BME280;70412;55.048;73.268;2024-01-07T05:50:45;100812.66;;;-18.36;92.83
59168;BME280;70412;55.048;73.268;2024-01-07T05:53:47;100794.50;;;-18.32;92.66
59168;BME280;70412;55.048;73.268;2024-01-07T05:56:49;100810.69;;;-18.11;93.09
59168;BME280;70412;55.048;73.268;2024-01-07T05:59:53;100812.41;;;-17.93;93.25
59168;BME280;70412;55.048;73.268;2024-01-07T06:02:55;100806.13;;;-17.85;92.50
59168;BME280;70412;55.048;73.268;2024-01-07T06:05:58;100802.22;;;-17.80;92.69
59168;BME280;70412;55.048;73.268;2024-01-07T06:09:00;100796.75;;;-17.89;92.49
59168;BME280;70412;55.048;73.268;2024-01-07T06:12:04;100806.22;;;-17.84;93.18
59168;BME280;70412;55.048;73.268;2024-01-07T06:15:07;100762.78;;;-17.84;93.42
59168;BME280;70412;55.048;73.268;2024-01-07T06:18:09;100799.13;;;-17.58;93.02
59168;BME280;70412;55.048;73.268;2024-01-07T06:21:12;100765.66;;;-17.43;93.20
59168;BME280;70412;55.048;73.268;2024-01-07T06:24:19;100775.88;;;-17.04;92.43
59168;BME280;70412;55.048;73.268;2024-01-07T06:27:21;100767.16;;;-16.94;90.45
59168;BME280;70412;55.048;73.268;2024-01-07T06:30:24;100763.56;;;-16.82;90.49
59168;BME280;70412;55.048;73.268;2024-01-07T06:33:26;100764.41;;;-16.63;90.53
59168;BME280;70412;55.048;73.268;2024-01-07T06:36:29;100756.41;;;-16.55;89.50
59168;BME280;70412;55.048;73.268;2024-01-07T06:39:31;100759.63;;;-16.39;89.93
59168;BME280;70412;55.048;73.268;2024-01-07T06:42:36;100757.84;;;-16.03;90.92
59168;BME280;70412;55.048;73.268;2024-01-07T06:45:41;100731.69;;;-16.08;89.26
59168;BME280;70412;55.048;73.268;2024-01-07T06:48:44;100755.34;;;-16.03;88.13
59168;BME280;70412;55.048;73.268;2024-01-07T06:51:46;100739.47;;;-16.22;87.85
59168;BME280;70412;55.048;73.268;2024-01-07T06:54:49;100742.31;;;-16.14;87.40
59168;BME280;70412;55.048;73.268;2024-01-07T06:57:51;100741.78;;;-16.26;87.28
59168;BME280;70412;55.048;73.268;2024-01-07T07:00:54;100737.88;;;-16.20;87.38
59168;BME280;70412;55.048;73.268;2024-01-07T07:03:56;100719.38;;;-16.22;87.44
59168;BME280;70412;55.048;73.268;2024-01-07T07:06:59;100716.75;;;-16.25;86.34
59168;BME280;70412;55.048;73.268;2024-01-07T07:10:02;100705.50;;;-16.13;87.23
59168;BME280;70412;55.048;73.268;2024-01-07T07:13:05;100703.91;;;-15.92;87.59
59168;BME280;70412;55.048;73.268;2024-01-07T07:16:08;100689.81;;;-15.88;87.00
59168;BME280;70412;55.048;73.268;2024-01-07T07:19:10;100685.13;;;-16.00;85.69
59168;BME280;70412;55.048;73.268;2024-01-07T07:22:16;100681.94;;;-15.96;86.04
59168;BME280;70412;55.048;73.268;2024-01-07T07:25:18;100674.22;;;-16.01;86.37
59168;BME280;70412;55.048;73.268;2024-01-07T07:28:21;100669.25;;;-15.99;86.03
59168;BME280;70412;55.048;73.268;2024-01-07T07:31:23;100661.19;;;-16.11;85.37
59168;BME280;70412;55.048;73.268;2024-01-07T07:34:25;100644.97;;;-16.20;85.18
59168;BME280;70412;55.048;73.268;2024-01-07T07:37:27;100646.44;;;-16.25;85.77
59168;BME280;70412;55.048;73.268;2024-01-07T07:40:30;100646.50;;;-16.23;86.25
59168;BME280;70412;55.048;73.268;2024-01-07T07:43:32;100636.81;;;-16.14;86.67
59168;BME280;70412;55.048;73.268;2024-01-07T07:46:35;100630.50;;;-16.25;85.29
59168;BME280;70412;55.048;73.268;2024-01-07T07:49:37;100609.41;;;-16.48;86.02
59168;BME280;70412;55.048;73.268;2024-01-07T07:52:43;100625.00;;;-16.36;86.33
59168;BME280;70412;55.048;73.268;2024-01-07T07:55:46;100620.91;;;-16.34;86.40
59168;BME280;70412;55.048;73.268;2024-01-07T07:58:48;100618.81;;;-16.44;86.40
59168;BME280;70412;55.048;73.268;2024-01-07T08:01:50;100590.91;;;-16.71;86.62
59168;BME280;70412;55.048;73.268;2024-01-07T08:04:53;100615.91;;;-16.53;86.90
59168;BME280;70412;55.048;73.268;2024-01-07T08:07:55;100584.13;;;-16.53;87.78
59168;BME280;70412;55.048;73.268;2024-01-07T08:10:58;100612.19;;;-16.23;88.02
59168;BME280;70412;55.048;73.268;2024-01-07T08:14:00;100591.97;;;-16.26;87.30
59168;BME280;70412;55.048;73.268;2024-01-07T08:17:04;100605.16;;;-16.30;88.04
59168;BME280;70412;55.048;73.268;2024-01-07T08:20:07;100590.38;;;-16.24;88.52
59168;BME280;70412;55.048;73.268;2024-01-07T08:23:10;100586.72;;;-16.11;88.57
59168;BME280;70412;55.048;73.268;2024-01-07T08:26:18;100580.97;;;-16.08;89.24
59168;BME280;70412;55.048;73.268;2024-01-07T08:29:21;100571.03;;;-16.05;88.93
59168;BME280;70412;55.048;73.268;2024-01-07T08:32:24;100573.53;;;-16.05;89.02
59168;BME280;70412;55.048;73.268;2024-01-07T08:35:27;100526.00;;;-16.22;89.31
59168;BME280;70412;55.048;73.268;2024-01-07T08:38:29;100548.13;;;-15.92;89.82
59168;BME280;70412;55.048;73.268;2024-01-07T08:41:31;100552.16;;;-15.75;89.92
59168;BME280;70412;55.048;73.268;2024-01-07T08:44:34;100540.84;;;-15.64;89.86
59168;BME280;70412;55.048;73.268;2024-01-07T08:47:37;100538.31;;;-15.41;90.28
59168;BME280;70412;55.048;73.268;2024-01-07T08:50:39;100514.41;;;-15.30;89.86
59168;BME280;70412;55.048;73.268;2024-01-07T08:53:42;100506.84;;;-15.30;89.22
59168;BME280;70412;55.048;73.268;2024-01-07T08:56:44;100515.31;;;-15.28;89.13
59168;BME280;70412;55.048;73.268;2024-01-07T08:59:47;100501.72;;;-15.33;88.85
59168;BME280;70412;55.048;73.268;2024-01-07T09:02:49;100511.03;;;-15.31;89.18
59168;BME280;70412;55.048;73.268;2024-01-07T09:05:51;100502.06;;;-15.24;89.70
59168;BME280;70412;55.048;73.268;2024-01-07T09:08:54;100506.84;;;-15.30;89.27
59168;BME280;70412;55.048;73.268;2024-01-07T09:11:56;100487.91;;;-15.44;88.79
59168;BME280;70412;55.048;73.268;2024-01-07T09:15:01;100468.28;;;-15.54;89.31
59168;BME280;70412;55.048;73.268;2024-01-07T09:18:03;100490.31;;;-15.47;89.57
59168;BME280;70412;55.048;73.268;2024-01-07T09:21:06;100487.50;;;-15.56;89.15
59168;BME280;70412;55.048;73.268;2024-01-07T09:24:08;100479.03;;;-15.58;89.53
59168;BME280;70412;55.048;73.268;2024-01-07T09:27:11;100469.69;;;-15.61;89.70
59168;BME280;70412;55.048;73.268;2024-01-07T09:30:13;100462.69;;;-15.70;89.59
59168;BME280;70412;55.048;73.268;2024-01-07T09:33:19;100456.75;;;-15.72;90.27
59168;BME280;70412;55.048;73.268;2024-01-07T09:36:24;100444.25;;;-15.70;90.53
59168;BME280;70412;55.048;73.268;2024-01-07T09:39:27;100435.63;;;-15.77;90.46
59168;BME280;70412;55.048;73.268;2024-01-07T09:42:30;100420.31;;;-15.83;90.84
59168;BME280;70412;55.048;73.268;2024-01-07T09:45:33;100401.28;;;-15.99;90.69
59168;BME280;70412;55.048;73.268;2024-01-07T09:48:38;100420.88;;;-15.90;91.22
59168;BME280;70412;55.048;73.268;2024-01-07T09:51:41;100413.09;;;-15.96;91.46
59168;BME280;70412;55.048;73.268;2024-01-07T09:54:51;100397.38;;;-15.92;92.23
59168;BME280;70412;55.048;73.268;2024-01-07T09:57:54;100384.97;;;-15.87;92.49
59168;BME280;70412;55.048;73.268;2024-01-07T10:00:57;100383.56;;;-15.79;92.51
59168;BME280;70412;55.048;73.268;2024-01-07T10:03:59;100374.06;;;-15.88;92.98
59168;BME280;70412;55.048;73.268;2024-01-07T10:07:02;100385.22;;;-15.80;93.18
59168;BME280;70412;55.048;73.268;2024-01-07T10:10:14;100385.38;;;-15.77;94.20
59168;BME280;70412;55.048;73.268;2024-01-07T10:13:16;100386.28;;;-15.75;94.32
59168;BME280;70412;55.048;73.268;2024-01-07T10:16:19;100378.88;;;-15.70;94.87
59168;BME280;70412;55.048;73.268;2024-01-07T10:19:22;100383.16;;;-15.68;94.79
59168;BME280;70412;55.048;73.268;2024-01-07T10:22:26;100339.72;;;-15.87;95.70
59168;BME280;70412;55.048;73.268;2024-01-07T10:25:30;100366.44;;;-15.67;96.72
59168;BME280;70412;55.048;73.268;2024-01-07T10:28:34;100366.31;;;-15.70;97.04
59168;BME280;70412;55.048;73.268;2024-01-07T10:31:38;100354.72;;;-15.67;97.85
59168;BME280;70412;55.048;73.268;2024-01-07T10:34:46;100348.03;;;-15.66;98.70
59168;BME280;70412;55.048;73.268;2024-01-07T10:37:49;100333.84;;;-15.64;99.88
59168;BME280;70412;55.048;73.268;2024-01-07T10:40:52;100329.56;;;-15.67;100.00
59168;BME280;70412;55.048;73.268;2024-01-07T10:43:57;100326.16;;;-15.69;100.00
59168;BME280;70412;55.048;73.268;2024-01-07T10:47:00;100312.88;;;-15.65;100.00
59168;BME280;70412;55.048;73.268;2024-01-07T10:50:08;100314.81;;;-15.57;100.00
59168;BME280;70412;55.048;73.268;2024-01-07T10:53:18;100308.28;;;-15.52;100.00
59168;BME280;70412;55.048;73.268;2024-01-07T10:56:25;100302.22;;;-15.59;100.00
59168;BME280;70412;55.048;73.268;2024-01-07T10:59:33;100292.88;;;-15.62;100.00
59168;BME280;70412;55.048;73.268;2024-01-07T11:02:48;100272.66;;;-15.65;100.00
59168;BME280;70412;55.048;73.268;2024-01-07T11:06:27;100265.94;;;-15.66;100.00
59168;BME280;70412;55.048;73.268;2024-01-07T11:09:42;100259.28;;;-15.64;100.00
59168;BME280;70412;55.048;73.268;2024-01-07T11:12:56;100258.44;;;-15.64;100.00
59168;BME280;70412;55.048;73.268;2024-01-07T11:16:41;100240.03;;;-15.63;100.00
59168;BME280;70412;55.048;73.268;2024-01-07T11:19:50;100206.84;;;-15.78;100.00
59168;BME280;70412;55.048;73.268;2024-01-07T11:23:27;100221.00;;;-15.56;100.00
59168;BME280;70412;55.048;73.268;2024-01-07T11:26:34;100211.81;;;-15.56;100.00
59168;BME280;70412;55.048;73.268;2024-01-07T11:29:37;100198.53;;;-15.52;100.00
59168;BME280;70412;55.048;73.268;2024-01-07T11:32:39;100199.66;;;-15.42;100.00
59168;BME280;70412;55.048;73.268;2024-01-07T11:35:55;100198.97;;;-15.37;100.00
59168;BME280;70412;55.048;73.268;2024-01-07T11:39:01;100156.00;;;-15.44;100.00
59168;BME280;70412;55.048;73.268;2024-01-07T11:42:08;100182.53;;;-15.27;100.00
59168;BME280;70412;55.048;73.268;2024-01-07T11:45:10;100180.09;;;-15.24;100.00
59168;BME280;70412;55.048;73.268;2024-01-07T11:48:13;100167.88;;;-15.12;100.00
59168;BME280;70412;55.048;73.268;2024-01-07T11:51:16;100173.25;;;-15.01;100.00
59168;BME280;70412;55.048;73.268;2024-01-07T11:54:18;100162.50;;;-14.95;100.00
59168;BME280;70412;55.048;73.268;2024-01-07T11:57:21;100161.09;;;-14.87;100.00
59168;BME280;70412;55.048;73.268;2024-01-07T12:00:23;100151.19;;;-14.81;100.00
59168;BME280;70412;55.048;73.268;2024-01-07T12:03:25;100137.97;;;-14.74;100.00
59168;BME280;70412;55.048;73.268;2024-01-07T12:06:32;100136.44;;;-14.69;100.00
59168;BME280;70412;55.048;73.268;2024-01-07T12:09:34;100129.78;;;-14.67;100.00
59168;BME280;70412;55.048;73.268;2024-01-07T12:12:41;100120.63;;;-14.63;100.00
59168;BME280;70412;55.048;73.268;2024-01-07T12:15:44;100097.28;;;-14.59;100.00
59168;BME280;70412;55.048;73.268;2024-01-07T12:18:46;100096.47;;;-14.58;100.00
59168;BME280;70412;55.048;73.268;2024-01-07T12:22:01;100021.50;;;-14.99;100.00
59168;BME280;70412;55.048;73.268;2024-01-07T12:25:05;100083.38;;;-14.44;100.00
59168;BME280;70412;55.048;73.268;2024-01-07T12:28:08;100092.03;;;-14.35;100.00
59168;BME280;70412;55.048;73.268;2024-01-07T12:31:11;100076.97;;;-14.32;100.00
59168;BME280;70412;55.048;73.268;2024-01-07T12:34:13;100066.84;;;-14.35;100.00
59168;BME280;70412;55.048;73.268;2024-01-07T12:37:33;100070.50;;;-14.24;100.00
59168;BME280;70412;55.048;73.268;2024-01-07T12:40:35;100063.06;;;-14.18;100.00
59168;BME280;70412;55.048;73.268;2024-01-07T12:43:38;100047.25;;;-14.11;100.00
59168;BME280;70412;55.048;73.268;2024-01-07T12:46:40;100040.75;;;-14.03;100.00
59168;BME280;70412;55.048;73.268;2024-01-07T12:49:43;100038.38;;;-13.95;100.00
59168;BME280;70412;55.048;73.268;2024-01-07T12:52:45;100020.03;;;-13.91;100.00
59168;BME280;70412;55.048;73.268;2024-01-07T12:55:47;100020.25;;;-13.81;100.00
59168;BME280;70412;55.048;73.268;2024-01-07T12:58:50;100011.16;;;-13.74;100.00
59168;BME280;70412;55.048;73.268;2024-01-07T13:01:52;99994.47;;;-13.69;100.00
59168;BME280;70412;55.048;73.268;2024-01-07T13:05:11;99987.16;;;-13.58;100.00
59168;BME280;70412;55.048;73.268;2024-01-07T13:08:13;99990.63;;;-13.52;100.00
59168;BME280;70412;55.048;73.268;2024-01-07T13:11:16;99982.28;;;-13.49;100.00
59168;BME280;70412;55.048;73.268;2024-01-07T13:14:20;99978.38;;;-13.35;100.00
59168;BME280;70412;55.048;73.268;2024-01-07T13:17:23;99954.94;;;-13.28;100.00
59168;BME280;70412;55.048;73.268;2024-01-07T13:20:25;99935.72;;;-13.23;100.00
59168;BME280;70412;55.048;73.268;2024-01-07T13:23:28;99922.31;;;-13.20;100.00
59168;BME280;70412;55.048;73.268;2024-01-07T13:26:30;99905.53;;;-13.18;100.00
59168;BME280;70412;55.048;73.268;2024-01-07T13:29:47;99901.50;;;-13.08;100.00
59168;BME280;70412;55.048;73.268;2024-01-07T13:32:49;99907.44;;;-13.06;100.00
59168;BME280;70412;55.048;73.268;2024-01-07T13:36:09;99874.53;;;-13.09;100.00
59168;BME280;70412;55.048;73.268;2024-01-07T13:39:23;99884.81;;;-13.00;100.00
59168;BME280;70412;55.048;73.268;2024-01-07T13:42:25;99876.41;;;-12.99;100.00
59168;BME280;70412;55.048;73.268;2024-01-07T13:45:28;99857.13;;;-12.94;100.00
59168;BME280;70412;55.048;73.268;2024-01-07T13:48:30;99857.31;;;-12.85;100.00
59168;BME280;70412;55.048;73.268;2024-01-07T13:51:50;99843.06;;;-12.80;100.00
59168;BME280;70412;55.048;73.268;2024-01-07T13:54:52;99836.41;;;-12.75;100.00
59168;BME280;70412;55.048;73.268;2024-01-07T13:58:10;99833.94;;;-12.70;100.00
59168;BME280;70412;55.048;73.268;2024-01-07T14:01:14;99814.63;;;-12.67;100.00
59168;BME280;70412;55.048;73.268;2024-01-07T14:04:18;99797.84;;;-12.62;100.00
59168;BME280;70412;55.048;73.268;2024-01-07T14:07:21;99792.06;;;-12.58;100.00
59168;BME280;70412;55.048;73.268;2024-01-07T14:10:23;99766.00;;;-12.54;100.00
59168;BME280;70412;55.048;73.268;2024-01-07T14:13:26;99767.69;;;-12.52;100.00
59168;BME280;70412;55.048;73.268;2024-01-07T14:16:29;99735.50;;;-12.67;100.00
59168;BME280;70412;55.048;73.268;2024-01-07T14:19:33;99739.72;;;-12.65;100.00
59168;BME280;70412;55.048;73.268;2024-01-07T14:22:38;99738.19;;;-12.55;100.00
59168;BME280;70412;55.048;73.268;2024-01-07T14:25:41;99746.66;;;-12.51;100.00
59168;BME280;70412;55.048;73.268;2024-01-07T14:28:46;99734.06;;;-12.48;100.00
59168;BME280;70412;55.048;73.268;2024-01-07T14:31:48;99717.22;;;-12.49;100.00
59168;BME280;70412;55.048;73.268;2024-01-07T14:34:51;99729.03;;;-12.45;100.00
59168;BME280;70412;55.048;73.268;2024-01-07T14:37:54;99733.22;;;-12.47;100.00
59168;BME280;70412;55.048;73.268;2024-01-07T14:40:56;99713.00;;;-12.47;100.00
59168;BME280;70412;55.048;73.268;2024-01-07T14:43:59;99698.69;;;-12.48;100.00
59168;BME280;70412;55.048;73.268;2024-01-07T14:47:02;99689.47;;;-12.45;100.00
59168;BME280;70412;55.048;73.268;2024-01-07T14:50:05;99694.59;;;-12.40;100.00
59168;BME280;70412;55.048;73.268;2024-01-07T14:53:08;99677.78;;;-12.37;100.00
59168;BME280;70412;55.048;73.268;2024-01-07T14:56:10;99662.59;;;-12.38;100.00
59168;BME280;70412;55.048;73.268;2024-01-07T14:59:12;99649.19;;;-12.33;100.00
59168;BME280;70412;55.048;73.268;2024-01-07T15:02:15;99650.97;;;-12.24;100.00
59168;BME280;70412;55.048;73.268;2024-01-07T15:05:17;99646.81;;;-12.19;100.00
59168;BME280;70412;55.048;73.268;2024-01-07T15:08:20;99631.69;;;-12.16;100.00
59168;BME280;70412;55.048;73.268;2024-01-07T15:11:24;99629.19;;;-12.10;100.00
59168;BME280;70412;55.048;73.268;2024-01-07T15:14:27;99621.69;;;-12.04;100.00
59168;BME280;70412;55.048;73.268;2024-01-07T15:17:29;99617.50;;;-11.99;100.00
59168;BME280;70412;55.048;73.268;2024-01-07T15:20:32;99583.75;;;-12.07;100.00
59168;BME280;70412;55.048;73.268;2024-01-07T15:23:35;99594.84;;;-11.91;100.00
59168;BME280;70412;55.048;73.268;2024-01-07T15:26:37;99602.50;;;-11.79;100.00
59168;BME280;70412;55.048;73.268;2024-01-07T15:29:42;99599.22;;;-11.70;100.00
59168;BME280;70412;55.048;73.268;2024-01-07T15:32:47;99596.72;;;-11.64;100.00